createdAt,value
2022-10-10T00:02:48.238Z,16.50
2022-10-10T00:05:40.686Z,17.60
2022-10-10T00:08:28.399Z,16.80
2022-10-10T00:11:34.221Z,17.40
2022-10-10T00:14:35.425Z,16.80
2022-10-10T00:17:36.348Z,16.90
2022-10-10T00:20:06.128Z,18.90
2022-10-10T00:22:48.564Z,19.40
2022-10-10T00:25:41.302Z,18.20
2022-10-10T00:28:40.667Z,18.30
2022-10-10T00:31:53.136Z,17.60
2022-10-10T00:34:42.955Z,18.40
2022-10-10T00:37:45.735Z,18.30
2022-10-10T00:40:29.684Z,18.00
2022-10-10T00:43:28.632Z,17.10
2022-10-10T00:46:23.624Z,17.30
2022-10-10T00:49:15.223Z,17.70
2022-10-10T00:52:09.981Z,18.30
2022-10-10T00:54:56.219Z,17.70
2022-10-10T00:57:53.848Z,16.10
2022-10-10T01:00:43.603Z,16.10
2022-10-10T01:03:24.055Z,17.10
2022-10-10T01:06:25.336Z,16.60
2022-10-10T01:09:27.015Z,17.10
2022-10-10T01:12:27.785Z,16.70
2022-10-10T01:15:42.927Z,15.20
2022-10-10T01:18:36.514Z,17.00
2022-10-10T01:21:53.614Z,16.90
2022-10-10T01:24:42.341Z,15.90
2022-10-10T01:28:21.893Z,15.00
2022-10-10T01:31:17.220Z,16.10
2022-10-10T01:34:38.196Z,16.40
2022-10-10T01:37:47.859Z,17.50
2022-10-10T01:41:34.348Z,16.70
2022-10-10T01:44:25.764Z,15.20
2022-10-10T01:47:16.556Z,16.40
2022-10-10T01:50:05.525Z,17.10
2022-10-10T01:52:57.830Z,18.80
2022-10-10T01:56:03.054Z,17.70
2022-10-10T01:59:17.917Z,18.20
2022-10-10T02:02:06.703Z,17.50
2022-10-10T02:04:51.869Z,16.30
2022-10-10T02:08:01.461Z,17.70
2022-10-10T02:10:53.851Z,17.90
2022-10-10T02:14:05.950Z,19.20
2022-10-10T02:17:25.088Z,18.10
2022-10-10T02:20:39.675Z,18.30
2022-10-10T02:23:43.068Z,19.60
2022-10-10T02:26:21.427Z,18.80
2022-10-10T02:30:00.966Z,18.90
2022-10-10T02:33:00.424Z,17.80
2022-10-10T02:35:51.070Z,16.90
2022-10-10T02:41:48.651Z,18.80
2022-10-10T02:44:23.386Z,18.40
2022-10-10T02:50:35.977Z,17.00
2022-10-10T02:54:01.567Z,18.00
2022-10-10T02:56:54.891Z,17.70
2022-10-10T02:59:42.510Z,17.10
2022-10-10T03:02:51.538Z,15.80
2022-10-10T03:05:50.779Z,14.30
2022-10-10T03:09:06.663Z,15.00
2022-10-10T03:12:04.385Z,15.50
2022-10-10T03:14:42.939Z,15.70
2022-10-10T03:17:24.164Z,16.50
2022-10-10T03:20:20.674Z,16.10
2022-10-10T03:23:00.676Z,14.60
2022-10-10T03:25:47.926Z,15.90
2022-10-10T03:28:20.383Z,16.70
2022-10-10T03:36:51.334Z,15.40
2022-10-10T03:40:06.718Z,15.70
2022-10-10T03:42:57.503Z,16.90
2022-10-10T03:45:43.703Z,16.10
2022-10-10T03:48:27.530Z,14.90
2022-10-10T03:51:19.181Z,14.30
2022-10-10T03:54:25.447Z,14.80
2022-10-10T03:57:14.159Z,16.40
2022-10-10T03:59:54.363Z,16.50
2022-10-10T04:02:26.142Z,14.80
2022-10-10T04:04:57.481Z,14.90
2022-10-10T04:07:42.163Z,15.10
2022-10-10T04:10:37.718Z,15.50
2022-10-10T04:14:12.556Z,16.00
2022-10-10T04:16:49.737Z,14.00
2022-10-10T04:20:08.631Z,13.80
2022-10-10T04:22:53.858Z,14.30
2022-10-10T04:25:44.772Z,14.20
2022-10-10T04:28:26.005Z,14.40
2022-10-10T04:31:02.040Z,12.60
2022-10-10T04:34:01.382Z,13.20
2022-10-10T04:36:52.931Z,13.20
2022-10-10T04:39:23.057Z,12.80
2022-10-10T04:42:08.088Z,13.20
2022-10-10T04:44:50.445Z,13.00
2022-10-10T04:47:27.011Z,12.70
2022-10-10T04:50:25.169Z,12.80
2022-10-10T04:53:08.104Z,13.40
2022-10-10T04:56:20.712Z,13.50
2022-10-10T04:59:18.181Z,13.60
2022-10-10T05:02:06.793Z,11.90
2022-10-10T05:04:51.233Z,12.80
2022-10-10T05:07:44.765Z,13.80
2022-10-10T05:10:25.297Z,13.60
2022-10-10T05:15:46.850Z,13.00
2022-10-10T05:18:30.589Z,12.50
2022-10-10T05:21:11.627Z,12.90
2022-10-10T05:24:00.899Z,12.60
2022-10-10T05:27:22.436Z,14.00
2022-10-10T05:33:58.893Z,12.40
2022-10-10T05:37:17.350Z,13.90
2022-10-10T05:40:14.044Z,12.40
2022-10-10T05:43:15.270Z,13.00
2022-10-10T05:45:55.783Z,13.20
2022-10-10T05:51:40.076Z,12.30
2022-10-10T05:54:27.436Z,10.00
2022-10-10T05:57:16.214Z,10.50
2022-10-10T05:59:44.940Z,11.40
2022-10-10T06:02:23.177Z,12.50
2022-10-10T06:05:04.727Z,13.10
2022-10-10T06:08:03.582Z,12.80
2022-10-10T06:11:15.874Z,11.00
2022-10-10T06:13:54.421Z,9.70
2022-10-10T06:16:53.247Z,11.00
2022-10-10T06:19:55.453Z,11.70
2022-10-10T06:22:48.737Z,9.90
2022-10-10T06:25:53.563Z,9.70
2022-10-10T06:28:35.885Z,10.80
2022-10-10T06:31:15.561Z,11.10
2022-10-10T06:33:58.122Z,12.00
2022-10-10T06:37:16.583Z,11.40
2022-10-10T06:40:07.626Z,13.40
2022-10-10T06:45:17.270Z,11.10
2022-10-10T06:47:50.276Z,11.70
2022-10-10T06:51:04.430Z,12.30
2022-10-10T06:54:08.124Z,12.70
2022-10-10T06:56:44.448Z,11.00
2022-10-10T06:59:21.279Z,12.10
2022-10-10T07:02:00.108Z,12.80
2022-10-10T07:04:28.680Z,12.30
2022-10-10T07:07:12.492Z,14.40
2022-10-10T07:10:19.611Z,13.00
2022-10-10T07:13:13.246Z,13.70
2022-10-10T07:16:11.613Z,13.50
2022-10-10T07:18:54.211Z,14.00
2022-10-10T07:22:02.950Z,14.30
2022-10-10T07:24:49.052Z,13.70
2022-10-10T07:27:37.137Z,14.10
2022-10-10T07:30:41.790Z,15.20
2022-10-10T07:33:27.261Z,18.60
2022-10-10T07:36:16.736Z,19.10
2022-10-10T07:39:06.607Z,17.50
2022-10-10T07:42:00.300Z,17.80
2022-10-10T07:45:00.070Z,18.00
2022-10-10T07:47:53.228Z,20.50
2022-10-10T07:50:48.881Z,19.70
2022-10-10T07:53:34.178Z,18.10
2022-10-10T07:56:27.716Z,18.50
2022-10-10T07:59:35.790Z,17.00
2022-10-10T08:02:28.491Z,18.30
2022-10-10T08:05:39.154Z,16.60
2022-10-10T08:08:32.975Z,15.70
2022-10-10T08:11:33.088Z,15.00
2022-10-10T08:14:39.483Z,16.20
2022-10-10T08:17:16.581Z,16.80
2022-10-10T08:20:01.348Z,14.10
2022-10-10T08:22:45.042Z,12.70
2022-10-10T08:26:11.841Z,12.60
2022-10-10T08:28:51.519Z,12.80
2022-10-10T08:31:31.384Z,12.70
2022-10-10T08:34:25.274Z,12.60
2022-10-10T08:37:15.783Z,12.00
2022-10-10T08:40:04.775Z,11.60
2022-10-10T08:42:54.867Z,10.70
2022-10-10T08:45:50.028Z,10.40
2022-10-10T08:48:40.917Z,10.10
2022-10-10T08:51:16.560Z,10.10
2022-10-10T08:53:57.826Z,10.20
2022-10-10T08:56:56.879Z,9.50
2022-10-10T08:59:50.782Z,7.70
2022-10-10T09:06:54.917Z,7.80
2022-10-10T09:10:15.142Z,8.90
2022-10-10T09:13:00.923Z,8.20
2022-10-10T09:16:15.418Z,7.50
2022-10-10T09:19:07.850Z,8.30
2022-10-10T09:21:38.484Z,7.80
2022-10-10T09:27:25.383Z,7.40
2022-10-10T09:30:14.894Z,7.60
2022-10-10T09:32:53.124Z,7.40
2022-10-10T09:35:39.272Z,6.90
2022-10-10T09:38:31.633Z,6.70
2022-10-10T09:42:01.407Z,6.30
2022-10-10T09:44:41.558Z,5.80
2022-10-10T09:47:27.393Z,6.20
2022-10-10T09:50:11.961Z,5.90
2022-10-10T09:53:17.085Z,5.50
2022-10-10T09:55:54.675Z,5.00
2022-10-10T09:58:40.859Z,5.40
2022-10-10T10:01:30.663Z,4.90
2022-10-10T10:04:29.055Z,3.90
2022-10-10T10:07:29.595Z,4.40
2022-10-10T10:10:26.393Z,3.70
2022-10-10T10:13:12.271Z,3.80
2022-10-10T10:16:04.680Z,3.20
2022-10-10T10:18:45.189Z,3.20
2022-10-10T10:21:25.025Z,2.90
2022-10-10T10:24:24.314Z,3.00
2022-10-10T10:27:17.554Z,2.80
2022-10-10T10:30:23.691Z,2.80
2022-10-10T10:33:14.909Z,2.60
2022-10-10T10:36:05.415Z,2.90
2022-10-10T10:39:07.136Z,3.10
2022-10-10T10:41:51.460Z,3.30
2022-10-10T10:44:57.712Z,2.90
2022-10-10T10:47:51.949Z,3.10
2022-10-10T10:50:51.696Z,2.60
2022-10-10T10:53:54.006Z,2.80
2022-10-10T10:56:48.491Z,2.80
2022-10-10T11:01:20.240Z,3.20
2022-10-10T11:05:16.364Z,2.80
2022-10-10T11:07:38.146Z,2.60
2022-10-10T11:10:52.021Z,2.50
2022-10-10T11:13:55.241Z,2.70
2022-10-10T11:16:51.777Z,2.60
2022-10-10T11:19:56.429Z,2.70
2022-10-10T11:23:13.728Z,2.30
2022-10-10T11:26:11.092Z,2.60
2022-10-10T11:29:47.889Z,2.40
2022-10-10T11:33:00.423Z,2.50
2022-10-10T11:35:42.668Z,2.50
2022-10-10T11:38:30.690Z,2.80
2022-10-10T11:41:43.637Z,2.80
2022-10-10T11:44:39.394Z,2.60
2022-10-10T11:48:12.082Z,2.60
2022-10-10T11:51:16.144Z,2.70
2022-10-10T11:53:48.354Z,3.10
2022-10-10T11:56:46.077Z,3.00
2022-10-10T12:00:03.002Z,2.60
2022-10-10T12:02:45.206Z,3.10
2022-10-10T12:06:01.108Z,2.60
2022-10-10T12:09:10.658Z,2.70
2022-10-10T12:11:59.196Z,2.80
2022-10-10T12:14:46.929Z,3.10
2022-10-10T12:17:44.505Z,3.10
2022-10-10T12:20:41.746Z,3.30
2022-10-10T12:23:37.286Z,2.90
2022-10-10T12:26:39.328Z,2.80
2022-10-10T12:29:30.786Z,3.20
2022-10-10T12:32:40.397Z,3.00
2022-10-10T12:35:34.253Z,3.50
2022-10-10T12:38:28.908Z,3.40
2022-10-10T12:41:34.433Z,3.50
2022-10-10T12:44:25.623Z,3.80
2022-10-10T12:47:46.236Z,3.80
2022-10-10T12:51:09.775Z,3.40
2022-10-10T12:53:54.652Z,3.10
2022-10-10T12:57:04.941Z,3.60
2022-10-10T12:59:47.263Z,3.10
2022-10-10T13:02:41.267Z,3.40
2022-10-10T13:05:17.516Z,3.70
2022-10-10T13:08:07.453Z,3.20
2022-10-10T13:10:51.299Z,2.80
2022-10-10T13:13:24.926Z,2.80
2022-10-10T13:16:17.507Z,2.80
2022-10-10T13:19:02.624Z,2.30
2022-10-10T13:21:36.988Z,2.30
2022-10-10T13:24:14.049Z,2.60
2022-10-10T13:26:53.801Z,2.80
2022-10-10T13:30:04.312Z,2.40
2022-10-10T13:32:58.303Z,2.50
2022-10-10T13:36:18.573Z,2.80
2022-10-10T13:39:07.619Z,1.90
2022-10-10T13:42:49.736Z,1.90
2022-10-10T13:45:55.770Z,2.10
2022-10-10T13:48:57.365Z,2.30
2022-10-10T13:51:45.046Z,2.20
2022-10-10T13:54:39.407Z,1.90
2022-10-10T13:57:18.200Z,1.80
2022-10-10T13:59:58.192Z,2.50
2022-10-10T14:02:50.958Z,2.50
2022-10-10T14:05:41.001Z,2.20
2022-10-10T14:08:39.141Z,2.30
2022-10-10T14:11:08.672Z,2.20
2022-10-10T14:13:54.539Z,1.90
2022-10-10T14:17:04.785Z,2.10
2022-10-10T14:20:13.379Z,1.90
2022-10-10T14:23:01.862Z,2.20
2022-10-10T14:25:45.065Z,1.90
2022-10-10T14:31:38.474Z,1.90
2022-10-10T14:34:20.353Z,1.80
2022-10-10T14:37:12.750Z,2.00
2022-10-10T14:39:59.139Z,2.40
2022-10-10T14:42:46.096Z,2.40
2022-10-10T14:45:21.177Z,2.10
2022-10-10T14:47:54.478Z,2.20
2022-10-10T14:50:51.525Z,2.10
2022-10-10T14:53:39.273Z,2.50
2022-10-10T14:56:20.326Z,2.00
2022-10-10T14:59:49.342Z,2.00
2022-10-10T15:02:40.817Z,2.30
2022-10-10T15:05:36.180Z,2.10
2022-10-10T15:08:11.180Z,2.90
2022-10-10T15:11:05.923Z,2.50
2022-10-10T15:13:54.203Z,2.30
2022-10-10T15:16:38.360Z,2.30
2022-10-10T15:19:27.315Z,2.30
2022-10-10T15:22:30.272Z,2.00
2022-10-10T15:25:10.901Z,2.40
2022-10-10T15:31:29.780Z,2.30
2022-10-10T15:37:30.744Z,2.60
2022-10-10T15:40:40.033Z,3.00
2022-10-10T15:43:51.637Z,3.20
2022-10-10T15:46:31.448Z,3.30
2022-10-10T15:49:07.987Z,3.10
2022-10-10T15:51:52.926Z,3.50
2022-10-10T15:54:38.322Z,3.00
2022-10-10T15:57:23.753Z,3.60
2022-10-10T16:00:14.874Z,3.70
2022-10-10T16:02:52.140Z,3.70
2022-10-10T16:05:28.972Z,3.70
2022-10-10T16:08:04.951Z,4.00
2022-10-10T16:10:52.909Z,4.20
2022-10-10T16:13:41.105Z,3.90
2022-10-10T16:16:45.496Z,4.20
2022-10-10T16:19:30.420Z,4.50
2022-10-10T16:22:27.140Z,4.10
2022-10-10T16:25:22.170Z,4.40
2022-10-10T16:28:34.415Z,6.80
2022-10-10T16:34:21.594Z,4.60
2022-10-10T16:37:04.503Z,4.50
2022-10-10T16:39:57.973Z,4.10
2022-10-10T16:42:51.652Z,5.00
2022-10-10T16:45:26.525Z,5.00
2022-10-10T16:48:26.572Z,5.10
2022-10-10T16:51:15.675Z,4.80
2022-10-10T16:53:46.934Z,5.00
2022-10-10T16:56:40.061Z,4.50
2022-10-10T16:59:19.778Z,5.70
2022-10-10T17:02:24.782Z,5.70
2022-10-10T17:05:24.240Z,5.60
2022-10-10T17:08:26.803Z,5.80
2022-10-10T17:10:59.178Z,6.10
2022-10-10T17:13:44.455Z,6.10
2022-10-10T17:19:49.034Z,6.00
2022-10-10T17:22:42.508Z,7.00
2022-10-10T17:25:32.179Z,8.30
2022-10-10T17:28:30.509Z,7.70
2022-10-10T17:31:42.754Z,8.10
2022-10-10T17:37:46.758Z,8.30
2022-10-10T17:40:47.806Z,7.70
2022-10-10T17:43:25.684Z,7.40
2022-10-10T17:46:32.621Z,8.80
2022-10-10T17:49:11.770Z,8.40
2022-10-10T17:51:52.629Z,8.80
2022-10-10T17:54:34.411Z,8.40
2022-10-10T17:57:28.911Z,8.20
2022-10-10T17:59:59.920Z,8.80
2022-10-10T18:02:34.894Z,8.70
2022-10-10T18:05:33.861Z,9.90
2022-10-10T18:08:19.142Z,9.10
2022-10-10T18:11:13.050Z,9.70
2022-10-10T18:13:52.213Z,9.50
2022-10-10T18:16:26.979Z,9.60
2022-10-10T18:19:15.723Z,8.90
2022-10-10T18:22:16.078Z,8.90
2022-10-10T18:25:01.171Z,9.20
2022-10-10T18:27:49.533Z,9.50
2022-10-10T18:30:39.673Z,9.40
2022-10-10T18:33:23.113Z,9.90
2022-10-10T18:36:12.669Z,9.70
2022-10-10T18:38:53.322Z,9.50
2022-10-10T18:41:41.482Z,9.80
2022-10-10T18:44:30.695Z,10.50
2022-10-10T18:47:25.869Z,10.30
2022-10-10T18:50:00.055Z,10.30
2022-10-10T18:52:52.357Z,9.80
2022-10-10T18:55:37.598Z,9.90
2022-10-10T18:58:40.159Z,9.50
2022-10-10T19:01:23.719Z,10.00
2022-10-10T19:04:15.369Z,10.70
2022-10-10T19:07:18.848Z,10.40
2022-10-10T19:10:06.279Z,10.50
2022-10-10T19:12:42.869Z,11.70
2022-10-10T19:15:34.398Z,10.50
2022-10-10T19:18:23.727Z,11.20
2022-10-10T19:21:04.143Z,10.90
2022-10-10T19:23:44.827Z,11.70
2022-10-10T19:26:35.732Z,10.70
2022-10-10T19:32:01.873Z,9.50
2022-10-10T19:34:38.820Z,10.50
2022-10-10T19:37:21.725Z,10.40
2022-10-10T19:40:02.064Z,10.70
2022-10-10T19:42:54.441Z,11.10
2022-10-10T19:45:25.437Z,10.00
2022-10-10T19:47:54.626Z,10.20
2022-10-10T19:50:38.271Z,11.30
2022-10-10T19:53:31.270Z,11.00
2022-10-10T19:56:14.853Z,12.00
2022-10-10T19:58:56.960Z,11.40
2022-10-10T20:01:46.538Z,11.10
2022-10-10T20:04:40.154Z,10.30
2022-10-10T20:07:17.674Z,11.80
2022-10-10T20:09:59.421Z,11.10
2022-10-10T20:12:48.883Z,11.70
2022-10-10T20:15:51.629Z,10.60
2022-10-10T20:18:21.782Z,10.50
2022-10-10T20:20:52.700Z,11.00
2022-10-10T20:23:30.295Z,11.20
2022-10-10T20:26:23.084Z,11.00
2022-10-10T20:29:07.724Z,10.80
2022-10-10T20:31:39.750Z,10.60
2022-10-10T20:34:12.405Z,10.60
2022-10-10T20:37:01.852Z,10.50
2022-10-10T20:39:47.547Z,11.20
2022-10-10T20:42:20.829Z,10.70
2022-10-10T20:44:56.046Z,10.80
2022-10-10T20:47:34.513Z,10.80
2022-10-10T20:50:36.144Z,11.80
2022-10-10T20:53:22.530Z,11.60
2022-10-10T20:56:14.952Z,11.50
2022-10-10T20:58:53.354Z,11.00
2022-10-10T21:01:28.534Z,11.70
2022-10-10T21:03:58.671Z,11.40
2022-10-10T21:06:42.179Z,10.80
2022-10-10T21:09:37.081Z,11.90
2022-10-10T21:12:04.656Z,10.70
2022-10-10T21:14:42.103Z,10.70
2022-10-10T21:17:36.445Z,11.20
2022-10-10T21:20:42.709Z,11.80
2022-10-10T21:23:14.254Z,13.60
2022-10-10T21:28:36.355Z,10.60
2022-10-10T21:31:42.441Z,11.70
2022-10-10T21:34:45.633Z,11.80
2022-10-10T21:37:33.180Z,11.50
2022-10-10T21:40:06.247Z,10.90
2022-10-10T21:43:03.432Z,10.50
2022-10-10T21:45:44.091Z,11.30
2022-10-10T21:51:05.227Z,11.20
2022-10-10T21:53:47.305Z,11.30
2022-10-10T21:56:24.329Z,10.40
2022-10-10T21:59:11.859Z,9.90
2022-10-10T22:02:11.230Z,10.70
2022-10-10T22:04:49.505Z,10.00
2022-10-10T22:07:23.376Z,10.60
2022-10-10T22:09:55.367Z,10.30
2022-10-10T22:12:39.447Z,9.40
2022-10-10T22:15:14.515Z,10.50
2022-10-10T22:17:55.662Z,9.40
2022-10-10T22:20:27.908Z,10.40
2022-10-10T22:23:11.772Z,10.50
2022-10-10T22:25:51.935Z,9.30
2022-10-10T22:28:27.191Z,9.40
2022-10-10T22:31:23.557Z,10.40
2022-10-10T22:33:53.829Z,9.90
2022-10-10T22:36:38.984Z,9.60
2022-10-10T22:39:18.043Z,9.70
2022-10-10T22:41:57.812Z,9.30
2022-10-10T22:44:40.136Z,8.60
2022-10-10T22:47:10.579Z,9.70
2022-10-10T22:52:39.257Z,9.30
2022-10-10T22:55:48.298Z,9.40
2022-10-10T22:58:34.713Z,8.90
2022-10-10T23:01:26.953Z,8.20
2022-10-10T23:04:13.113Z,8.80
2022-10-10T23:07:07.608Z,8.60
2022-10-10T23:09:50.887Z,8.70
2022-10-10T23:12:43.311Z,9.00
2022-10-10T23:15:28.785Z,8.00
2022-10-10T23:21:15.508Z,8.50
2022-10-10T23:26:43.324Z,8.80
2022-10-10T23:29:37.760Z,8.30
2022-10-10T23:32:28.801Z,8.80
2022-10-10T23:35:20.887Z,7.70
2022-10-10T23:37:58.769Z,8.70
2022-10-10T23:40:32.140Z,8.80
2022-10-10T23:43:17.119Z,9.20
2022-10-10T23:45:47.776Z,8.30
2022-10-10T23:48:35.719Z,8.60
2022-10-10T23:51:27.334Z,7.60
2022-10-10T23:54:14.649Z,8.20
2022-10-10T23:57:07.411Z,8.30
2022-10-10T23:59:44.480Z,8.60
